Time;durP1;ratioP1;P1;durP2;ratioP2;P2;SDS_P1;SDS_P2;PMS_P1;PMS_P2;Temp;Humidity;BMP_temperature;BMP_pressure;BME280_temperature;BME280_humidity;BME280_pressure;Samples;Min_cycle;Max_cycle;Signal;HPM_P1;HPM_P2
2022/01/20 00:00:18;;;;;;;42.45;8.77;;;3.60;99.90;;;;;;5024810;28;20536;-75
2022/01/20 00:02:50;;;;;;;44.50;10.02;;;3.70;99.90;;;;;;5028945;28;20103;-76
2022/01/20 00:27:19;;;;;;;48.85;10.02;;;3.50;99.90;;;;;;5049392;28;20134;-74
2022/01/20 00:32:17;;;;;;;35.72;7.82;;;3.40;99.90;;;;;;5021864;28;20041;-74
2022/01/20 00:37:30;;;;;;;33.35;6.50;;;3.40;99.90;;;;;;5023827;28;20249;-74
2022/01/20 00:39:58;;;;;;;35.67;6.43;;;3.30;99.90;;;;;;5041406;28;20128;-74
2022/01/20 00:42:25;;;;;;;38.58;6.70;;;3.30;99.90;;;;;;5062423;22;20072;-71
2022/01/20 00:44:52;;;;;;;44.03;7.60;;;3.30;99.90;;;;;;5021822;28;20080;-71
2022/01/20 00:47:20;;;;;;;38.70;6.28;;;3.30;99.90;;;;;;5044735;28;20057;-71
2022/01/20 00:49:47;;;;;;;49.97;8.77;;;3.30;99.90;;;;;;5060794;28;20572;-70
2022/01/20 00:52:14;;;;;;;33.75;6.97;;;3.20;99.90;;;;;;5044343;28;20037;-71
2022/01/20 00:54:41;;;;;;;40.53;5.75;;;3.20;99.90;;;;;;5054070;28;20541;-71
2022/01/20 00:57:08;;;;;;;43.42;6.60;;;3.20;99.90;;;;;;5043823;28;20052;-71
2022/01/20 00:59:35;;;;;;;35.95;6.22;;;3.20;99.90;;;;;;5044395;28;20064;-71
2022/01/20 01:02:07;;;;;;;42.70;7.15;;;3.10;99.90;;;;;;5043481;28;20048;-70
2022/01/20 01:04:34;;;;;;;39.28;6.88;;;3.10;99.90;;;;;;5053320;28;20044;-71
2022/01/20 01:09:29;;;;;;;49.72;6.72;;;3.00;99.90;;;;;;5032096;28;20044;-71
2022/01/20 01:12:01;;;;;;;36.17;6.63;;;3.00;99.90;;;;;;5037898;28;20068;-72
2022/01/20 01:14:31;;;;;;;27.05;5.85;;;2.90;99.90;;;;;;5033978;28;20060;-70
2022/01/20 01:24:45;;;;;;;44.13;7.20;;;3.00;99.90;;;;;;5039007;28;20083;-71
2022/01/20 01:27:13;;;;;;;41.45;6.72;;;3.00;99.90;;;;;;5054371;28;20234;-71
2022/01/20 01:32:34;;;;;;;31.38;6.05;;;3.00;99.90;;;;;;5043803;28;20040;-71
2022/01/20 01:35:06;;;;;;;53.65;8.02;;;3.00;99.90;;;;;;5061522;28;20049;-71
2022/01/20 01:40:01;;;;;;;31.70;5.20;;;3.00;99.90;;;;;;5038505;28;20276;-71
2022/01/20 01:42:43;;;;;;;44.28;6.93;;;3.00;99.90;;;;;;5024370;28;20053;-71
2022/01/20 01:45:15;;;;;;;50.17;7.65;;;2.90;99.90;;;;;;5020963;28;20534;-71
2022/01/20 01:47:44;;;;;;;34.67;6.15;;;2.90;99.90;;;;;;5042937;28;20057;-71
2022/01/20 01:50:16;;;;;;;38.90;6.90;;;2.90;99.90;;;;;;5022231;28;20052;-71
2022/01/20 01:52:43;;;;;;;30.67;6.28;;;3.00;99.90;;;;;;5022673;28;20172;-71
2022/01/20 01:55:11;;;;;;;41.70;6.43;;;2.90;99.90;;;;;;5032376;28;20037;-71
2022/01/20 01:57:40;;;;;;;34.22;5.72;;;2.90;99.90;;;;;;5028048;28;20045;-71
2022/01/20 02:00:10;;;;;;;53.38;7.22;;;2.90;99.90;;;;;;5037850;28;20041;-71
2022/01/20 02:02:42;;;;;;;45.00;8.38;;;2.90;99.90;;;;;;5045564;28;20135;-71
2022/01/20 02:05:17;;;;;;;37.35;6.85;;;2.90;99.90;;;;;;5046640;28;20151;-71
2022/01/20 02:08:25;;;;;;;33.88;6.60;;;2.90;99.90;;;;;;5015379;28;20553;-72
2022/01/20 02:19:19;;;;;;;28.20;6.65;;;2.90;99.90;;;;;;5046882;28;19920;-71
2022/01/20 02:22:02;;;;;;;40.97;5.93;;;2.90;99.90;;;;;;5046778;28;20041;-71
2022/01/20 02:24:39;;;;;;;35.28;5.90;;;2.90;99.90;;;;;;5050503;28;20060;-71
2022/01/20 02:27:06;;;;;;;33.60;5.57;;;2.90;99.90;;;;;;5056437;28;20060;-70
2022/01/20 02:29:38;;;;;;;33.40;5.75;;;2.90;99.90;;;;;;5063181;28;20049;-71
2022/01/20 02:32:06;;;;;;;41.50;6.32;;;2.90;99.90;;;;;;5045272;28;20045;-71
2022/01/20 02:34:33;;;;;;;42.35;6.25;;;2.90;99.90;;;;;;5062574;28;20106;-71
2022/01/20 02:37:05;;;;;;;26.83;7.07;;;2.90;99.90;;;;;;5026467;28;20122;-71
2022/01/20 02:44:54;;;;;;;;;;;2.80;99.90;;;;;;5051286;28;20044;-73
2022/01/20 02:47:26;;;;;;;38.35;6.35;;;2.80;99.90;;;;;;5046956;28;20015;-73
2022/01/20 02:49:53;;;;;;;42.28;6.82;;;2.70;99.90;;;;;;5046591;28;20072;-72
2022/01/20 02:52:22;;;;;;;36.15;6.53;;;2.80;99.90;;;;;;5045419;28;20041;-72
2022/01/20 02:54:50;;;;;;;46.22;6.38;;;2.80;99.90;;;;;;5047898;28;20048;-73
2022/01/20 02:57:18;;;;;;;32.67;5.65;;;2.80;99.90;;;;;;5051323;28;20090;-73
2022/01/20 02:59:44;;;;;;;29.13;5.50;;;2.80;99.90;;;;;;5026064;28;20049;-72
2022/01/20 03:02:11;;;;;;;31.55;4.85;;;2.80;99.90;;;;;;5028174;28;20052;-72
2022/01/20 03:04:39;;;;;;;29.25;5.22;;;2.80;99.90;;;;;;5045523;28;20147;-72
2022/01/20 03:07:19;;;;;;;37.60;6.75;;;2.90;99.90;;;;;;5043550;28;20065;-72
2022/01/20 03:09:45;;;;;;;42.60;7.03;;;2.80;99.90;;;;;;5045309;28;20044;-73
2022/01/20 03:12:13;;;;;;;21.85;5.68;;;2.90;99.90;;;;;;5061516;28;20128;-73
2022/01/20 03:14:39;;;;;;;17.15;3.70;;;2.80;99.90;;;;;;5051297;28;20056;-71
2022/01/20 03:17:07;;;;;;;25.48;5.70;;;2.80;99.90;;;;;;5061876;28;20095;-71
2022/01/20 03:19:35;;;;;;;19.52;3.80;;;2.80;99.90;;;;;;5045603;28;20056;-72
2022/01/20 03:22:02;;;;;;;26.02;5.40;;;2.80;99.90;;;;;;5044994;28;20044;-72
2022/01/20 03:24:29;;;;;;;16.75;4.25;;;2.80;99.90;;;;;;5045193;28;20231;-72
2022/01/20 03:26:57;;;;;;;27.67;3.63;;;2.90;99.90;;;;;;5053152;28;20288;-71
2022/01/20 03:29:24;;;;;;;20.75;3.60;;;2.80;99.90;;;;;;5045025;28;20044;-71
2022/01/20 03:31:51;;;;;;;26.42;2.95;;;2.80;99.90;;;;;;5060533;28;20053;-72
2022/01/20 03:34:21;;;;;;;20.85;2.75;;;2.80;99.90;;;;;;5063780;28;20041;-72
2022/01/20 03:36:52;;;;;;;19.98;2.13;;;2.80;99.90;;;;;;5045374;28;20120;-71
2022/01/20 03:39:23;;;;;;;13.80;2.05;;;2.80;99.90;;;;;;5058168;28;20055;-72
2022/01/20 03:41:51;;;;;;;18.75;2.55;;;2.80;99.90;;;;;;5057744;28;20499;-72
2022/01/20 03:44:22;;;;;;;16.42;1.95;;;2.80;99.90;;;;;;5061773;28;20105;-71
2022/01/20 03:46:49;;;;;;;20.48;2.97;;;2.80;99.90;;;;;;5045631;28;20040;-72
2022/01/20 03:51:55;;;;;;;19.27;3.78;;;2.80;99.90;;;;;;5044733;28;20071;-72
2022/01/20 03:54:26;;;;;;;22.25;2.95;;;2.80;99.90;;;;;;5044830;28;20442;-71
2022/01/20 03:57:12;;;;;;;;;;;2.80;99.90;;;;;;5062815;28;20082;-72
2022/01/20 03:59:57;;;;;;;21.70;3.83;;;2.80;99.90;;;;;;5063662;28;19920;-72
2022/01/20 04:02:42;;;;;;;24.05;3.90;;;2.80;99.90;;;;;;5062240;28;20186;-72
2022/01/20 04:05:29;;;;;;;20.17;3.45;;;2.80;99.90;;;;;;5046734;28;20048;-72
2022/01/20 04:08:34;;;;;;;20.77;3.88;;;2.80;99.90;;;;;;5043647;28;20040;-71
2022/01/20 04:11:12;;;;;;;21.55;3.97;;;2.80;99.90;;;;;;5073438;28;20046;-72
2022/01/20 04:13:41;;;;;;;18.40;4.10;;;2.80;99.90;;;;;;5059979;28;20059;-71
2022/01/20 04:16:37;;;;;;;14.65;4.65;;;2.80;99.90;;;;;;5043817;28;20036;-72
2022/01/20 04:19:07;;;;;;;21.35;4.43;;;2.80;99.90;;;;;;5037015;28;20692;-72
2022/01/20 04:21:36;;;;;;;25.85;4.53;;;2.80;99.90;;;;;;5045870;28;20055;-71
2022/01/20 04:24:05;;;;;;;14.65;3.00;;;2.80;99.90;;;;;;5044554;28;20052;-72
2022/01/20 04:26:35;;;;;;;27.73;4.85;;;2.80;99.90;;;;;;5043812;28;20052;-72
2022/01/20 04:29:05;;;;;;;19.38;3.13;;;2.70;99.90;;;;;;5061189;28;20524;-72
2022/01/20 04:31:34;;;;;;;29.73;5.20;;;2.70;99.90;;;;;;5060107;28;20054;-73
2022/01/20 04:34:01;;;;;;;15.00;2.92;;;2.70;99.90;;;;;;5063130;28;20130;-72
2022/01/20 04:36:31;;;;;;;16.27;2.90;;;2.70;99.90;;;;;;5047366;28;20047;-72
2022/01/20 04:39:01;;;;;;;15.00;2.75;;;2.70;99.90;;;;;;5042059;28;20478;-72
2022/01/20 04:41:29;;;;;;;17.40;3.25;;;2.70;99.90;;;;;;5055779;28;20043;-73
2022/01/20 04:44:01;;;;;;;15.68;3.50;;;2.70;99.90;;;;;;5049729;28;20052;-73
2022/01/20 04:46:38;;;;;;;19.48;3.72;;;2.60;99.90;;;;;;5061118;28;20890;-73
2022/01/20 04:57:05;;;;;;;22.73;4.03;;;2.60;99.90;;;;;;5044527;28;20044;-73
2022/01/20 04:57:32;;;;;;;;;;;2.70;99.90;;;;;;5051142;28;20051;-73
2022/01/20 04:59:59;;;;;;;28.88;5.38;;;2.70;99.90;;;;;;5045289;28;19921;-73
2022/01/20 05:02:28;;;;;;;13.52;3.60;;;2.70;99.90;;;;;;5043773;28;20040;-73
2022/01/20 05:05:01;;;;;;;18.48;5.03;;;2.60;99.90;;;;;;5044511;28;20048;-71
2022/01/20 05:07:39;;;;;;;23.75;5.53;;;2.70;99.90;;;;;;5042331;28;20155;-73
2022/01/20 05:10:11;;;;;;;18.23;4.18;;;2.80;99.90;;;;;;5068774;28;20052;-72
2022/01/20 05:13:31;;;;;;;19.52;5.75;;;2.80;99.90;;;;;;5045801;28;20070;-72
2022/01/20 05:15:25;;;;;;;23.95;4.32;;;2.70;99.90;;;;;;5050705;28;20053;-72
2022/01/20 05:17:54;;;;;;;13.88;3.35;;;2.70;99.90;;;;;;5044268;28;20040;-72
2022/01/20 05:20:21;;;;;;;20.00;4.53;;;2.70;99.90;;;;;;5044040;28;20048;-72
2022/01/20 05:22:48;;;;;;;18.88;4.05;;;2.70;99.90;;;;;;5027821;28;20044;-71
2022/01/20 05:25:19;;;;;;;13.82;3.47;;;2.70;99.90;;;;;;5049206;28;20076;-72
2022/01/20 05:27:46;;;;;;;6.18;1.52;;;2.60;99.90;;;;;;5047358;28;20067;-73
2022/01/20 05:30:14;;;;;;;4.43;1.30;;;2.50;99.90;;;;;;5043311;28;20059;-72
2022/01/20 05:33:01;;;;;;;1.45;0.45;;;1.70;99.90;;;;;;5046571;28;20055;-72
2022/01/20 05:35:28;;;;;;;9.23;1.13;;;1.20;99.90;;;;;;5043407;28;20136;-72
2022/01/20 05:37:55;;;;;;;4.20;0.77;;;0.90;99.90;;;;;;5043749;28;20065;-73
2022/01/20 05:40:23;;;;;;;6.80;1.05;;;0.80;99.90;;;;;;5052403;28;20113;-73
2022/01/20 05:42:50;;;;;;;12.43;1.80;;;0.80;99.90;;;;;;5063866;28;20173;-73
2022/01/20 05:45:17;;;;;;;9.30;1.17;;;0.70;99.90;;;;;;5049824;28;20517;-73
2022/01/20 05:47:46;;;;;;;7.03;1.50;;;0.70;99.90;;;;;;5025520;28;20511;-74
2022/01/20 05:50:20;;;;;;;12.90;1.75;;;0.70;99.90;;;;;;5023343;28;20056;-74
2022/01/20 05:52:48;;;;;;;7.97;1.83;;;0.70;99.90;;;;;;5023194;28;20110;-74
2022/01/20 05:55:20;;;;;;;13.20;1.85;;;0.70;99.90;;;;;;5059113;28;20465;-74
2022/01/20 05:57:47;;;;;;;18.52;2.35;;;0.70;99.90;;;;;;5061498;28;20059;-74
2022/01/20 06:00:22;;;;;;;14.10;1.60;;;0.80;99.90;;;;;;5058550;28;20534;-74
2022/01/20 06:05:42;;;;;;;15.00;2.10;;;0.80;99.90;;;;;;5042289;28;20297;-74
2022/01/20 06:08:12;;;;;;;13.52;2.28;;;0.80;99.90;;;;;;5041243;28;20517;-74
2022/01/20 06:10:40;;;;;;;20.90;3.20;;;0.80;99.90;;;;;;5053873;28;20529;-74
2022/01/20 06:13:12;;;;;;;23.92;3.15;;;0.80;99.90;;;;;;5048822;28;20045;-74
2022/01/20 06:15:39;;;;;;;13.68;1.92;;;0.80;99.90;;;;;;5058293;28;20084;-74
2022/01/20 06:18:08;;;;;;;25.02;2.50;;;0.80;99.90;;;;;;5045255;28;20094;-74
2022/01/20 06:20:39;;;;;;;25.90;2.90;;;0.80;99.90;;;;;;5042232;28;20028;-74
2022/01/20 06:23:07;;;;;;;16.27;2.63;;;0.90;99.90;;;;;;5061281;28;20344;-74
2022/01/20 06:25:35;;;;;;;21.40;2.60;;;0.90;99.90;;;;;;5049224;28;20094;-74
2022/01/20 06:28:02;;;;;;;9.85;2.58;;;0.90;99.90;;;;;;5059187;28;20470;-74
2022/01/20 06:30:31;;;;;;;20.13;2.92;;;0.90;99.90;;;;;;5052634;28;20484;-74
2022/01/20 06:32:58;;;;;;;20.77;2.53;;;0.90;99.90;;;;;;5042721;28;20048;-74
2022/01/20 06:35:33;;;;;;;21.98;3.20;;;0.90;99.90;;;;;;5042029;28;20048;-74
2022/01/20 06:38:01;;;;;;;15.13;3.03;;;0.90;99.90;;;;;;5058663;28;20117;-74
2022/01/20 06:40:28;;;;;;;20.73;2.60;;;0.90;99.90;;;;;;5068292;28;20072;-74
2022/01/20 06:42:55;;;;;;;21.35;3.05;;;1.00;99.90;;;;;;5067779;22;20050;-73
2022/01/20 06:45:23;;;;;;;40.63;4.43;;;1.00;99.90;;;;;;5048320;28;20094;-74
2022/01/20 06:47:56;;;;;;;24.60;3.40;;;1.00;99.90;;;;;;5048323;28;20445;-73
2022/01/20 06:50:24;;;;;;;18.08;3.50;;;1.00;99.90;;;;;;5046686;28;20048;-73
2022/01/20 06:52:52;;;;;;;17.92;2.85;;;1.00;99.90;;;;;;5039076;28;20051;-74
2022/01/20 06:55:20;;;;;;;19.55;2.35;;;1.00;99.90;;;;;;5052730;28;20052;-74
2022/01/20 06:57:47;;;;;;;21.00;2.47;;;1.00;99.90;;;;;;5057808;28;20242;-73
2022/01/20 07:00:17;;;;;;;19.65;2.80;;;1.00;99.90;;;;;;5066178;28;20044;-74
2022/01/20 07:02:45;;;;;;;18.50;2.60;;;1.00;99.90;;;;;;5049291;28;20048;-73
2022/01/20 07:05:18;;;;;;;18.98;2.17;;;1.00;99.90;;;;;;5065973;28;20048;-73
2022/01/20 07:07:47;;;;;;;22.90;3.13;;;1.00;99.90;;;;;;5074557;28;20657;-73
2022/01/20 07:10:19;;;;;;;19.95;4.30;;;1.00;99.90;;;;;;5080623;28;20532;-74
2022/01/20 07:12:50;;;;;;;21.42;4.10;;;1.00;99.90;;;;;;5059234;28;20047;-73
2022/01/20 07:15:18;;;;;;;15.82;3.35;;;1.00;99.90;;;;;;5064902;28;20044;-73
2022/01/20 07:17:46;;;;;;;24.75;3.35;;;0.90;99.90;;;;;;5049037;28;20135;-74
2022/01/20 07:20:15;;;;;;;24.05;2.97;;;0.90;99.90;;;;;;5065320;28;20245;-74
2022/01/20 07:23:06;;;;;;;23.45;3.50;;;0.90;99.90;;;;;;5073143;28;20558;-74
2022/01/20 07:25:43;;;;;;;22.92;3.05;;;1.00;99.90;;;;;;5063727;28;20071;-73
2022/01/20 07:28:13;;;;;;;22.08;3.03;;;1.00;99.90;;;;;;5047721;28;20467;-73
2022/01/20 07:30:41;;;;;;;24.63;3.42;;;1.00;99.90;;;;;;5064884;28;20147;-75
2022/01/20 07:33:08;;;;;;;21.55;3.17;;;1.00;99.90;;;;;;5066391;28;20356;-73
2022/01/20 07:35:36;;;;;;;14.63;2.10;;;1.10;99.90;;;;;;5065088;28;20059;-74
2022/01/20 07:38:04;;;;;;;26.02;3.03;;;1.10;99.90;;;;;;5064993;28;20083;-73
2022/01/20 07:40:32;;;;;;;29.98;4.18;;;1.00;99.90;;;;;;5062206;28;20589;-73
2022/01/20 07:43:00;;;;;;;19.88;2.80;;;1.10;99.90;;;;;;5065465;28;20056;-73
2022/01/20 07:45:53;;;;;;;22.10;3.55;;;1.00;99.90;;;;;;5057153;28;20548;-74
2022/01/20 07:48:22;;;;;;;16.75;3.90;;;1.00;99.90;;;;;;5062799;28;20104;-73
2022/01/20 07:50:59;;;;;;;16.60;3.95;;;1.00;99.90;;;;;;5046342;28;20036;-74
2022/01/20 07:53:36;;;;;;;27.02;3.42;;;1.00;99.90;;;;;;5082827;28;20075;-74
2022/01/20 07:56:05;;;;;;;17.10;3.47;;;1.10;99.90;;;;;;5063902;28;20044;-74
2022/01/20 07:58:36;;;;;;;16.25;4.53;;;1.10;99.90;;;;;;5064241;28;20043;-74
2022/01/20 08:01:04;;;;;;;25.23;3.78;;;1.10;99.90;;;;;;5065098;28;20101;-74
2022/01/20 08:03:36;;;;;;;24.05;3.67;;;1.20;99.90;;;;;;5065443;28;20048;-73
2022/01/20 08:06:07;;;;;;;23.88;3.95;;;1.10;99.90;;;;;;5064689;28;20044;-74
2022/01/20 08:08:37;;;;;;;28.83;5.10;;;1.10;99.90;;;;;;5079898;28;20052;-74
2022/01/20 08:11:22;;;;;;;20.92;5.38;;;1.00;99.90;;;;;;5054496;28;20133;-74
2022/01/20 08:13:56;;;;;;;28.25;5.88;;;1.00;99.90;;;;;;5046134;28;20048;-74
2022/01/20 08:16:24;;;;;;;25.70;5.60;;;0.90;99.90;;;;;;5062353;28;20052;-74
2022/01/20 08:18:53;;;;;;;28.73;6.88;;;1.00;99.90;;;;;;5044316;28;20426;-74
2022/01/20 08:21:20;;;;;;;25.52;6.70;;;1.00;99.90;;;;;;5077560;28;20222;-74
2022/01/20 08:23:48;;;;;;;18.58;5.75;;;1.10;99.90;;;;;;5054557;28;20048;-74
2022/01/20 08:26:15;;;;;;;28.25;5.35;;;1.00;99.90;;;;;;5078062;28;20139;-73
2022/01/20 08:28:44;;;;;;;17.88;5.57;;;1.00;99.90;;;;;;5063841;28;20050;-74
2022/01/20 08:31:12;;;;;;;26.65;5.00;;;1.00;99.90;;;;;;5063632;28;20040;-75
2022/01/20 08:33:38;;;;;;;26.33;5.75;;;1.00;99.90;;;;;;5046755;28;20534;-74
2022/01/20 08:36:11;;;;;;;34.40;5.53;;;1.00;99.90;;;;;;5064277;28;20498;-74
2022/01/20 08:38:51;;;;;;;27.98;5.88;;;1.00;99.90;;;;;;5050743;28;20573;-75
2022/01/20 08:41:18;;;;;;;29.25;5.40;;;1.00;99.90;;;;;;5053516;28;20332;-75
2022/01/20 08:43:45;;;;;;;20.02;4.78;;;1.00;99.90;;;;;;5060221;28;20336;-75
2022/01/20 08:46:19;;;;;;;23.75;6.00;;;1.00;99.90;;;;;;5060020;28;20046;-75
2022/01/20 08:48:46;;;;;;;21.40;3.45;;;1.00;99.90;;;;;;5044827;28;20048;-75
2022/01/20 08:51:40;;;;;;;28.88;4.63;;;0.90;99.90;;;;;;5042554;28;20133;-74
2022/01/20 08:54:13;;;;;;;16.60;2.88;;;0.90;99.90;;;;;;5059710;28;20482;-74
2022/01/20 08:56:41;;;;;;;24.60;3.70;;;0.70;99.90;;;;;;5060315;28;20142;-75
2022/01/20 08:59:09;;;;;;;20.85;4.22;;;0.80;99.90;;;;;;5063922;28;20048;-75
2022/01/20 09:01:39;;;;;;;26.27;4.40;;;0.80;99.90;;;;;;5062462;28;20565;-75
2022/01/20 09:04:07;;;;;;;16.95;4.45;;;0.70;99.90;;;;;;5047506;28;20135;-75
2022/01/20 09:06:35;;;;;;;23.02;4.35;;;0.70;99.90;;;;;;5057868;28;20278;-74
2022/01/20 09:09:14;;;;;;;22.98;5.30;;;0.80;99.90;;;;;;5063708;28;20048;-74
2022/01/20 09:11:51;;;;;;;19.58;4.03;;;0.80;99.90;;;;;;5087420;28;20381;-74
2022/01/20 09:17:04;;;;;;;24.30;7.15;;;0.80;99.90;;;;;;5065127;28;20047;-74
2022/01/20 09:19:32;;;;;;;28.83;4.38;;;0.80;99.90;;;;;;5058698;28;20049;-74
2022/01/20 09:22:01;;;;;;;12.90;3.80;;;0.80;99.90;;;;;;5096576;28;20301;-74
2022/01/20 09:24:29;;;;;;;18.35;3.13;;;0.80;99.90;;;;;;5060668;28;20468;-74
2022/01/20 09:26:58;;;;;;;21.75;3.95;;;0.80;99.90;;;;;;5060527;28;20074;-74
2022/01/20 09:29:25;;;;;;;20.27;4.15;;;0.80;99.90;;;;;;5060956;28;20048;-74
2022/01/20 09:31:53;;;;;;;18.48;4.28;;;0.80;99.90;;;;;;5061603;28;20052;-75
2022/01/20 09:34:24;;;;;;;30.00;6.10;;;0.80;99.90;;;;;;5062862;28;20052;-75
2022/01/20 09:36:52;;;;;;;24.25;4.60;;;0.90;99.90;;;;;;5061893;28;20536;-75
2022/01/20 09:39:19;;;;;;;25.33;4.93;;;1.00;99.90;;;;;;5075983;28;20057;-75
2022/01/20 09:41:54;;;;;;;39.53;7.63;;;1.10;99.90;;;;;;5048600;28;20142;-74
2022/01/20 09:44:24;;;;;;;36.35;6.55;;;1.10;99.90;;;;;;5045512;28;20044;-74
2022/01/20 09:46:52;;;;;;;23.90;4.32;;;1.20;99.90;;;;;;5061440;28;20552;-74
2022/01/20 09:49:45;;;;;;;22.55;4.72;;;1.10;99.90;;;;;;5076933;28;20068;-74
2022/01/20 09:52:24;;;;;;;22.27;4.18;;;1.10;99.90;;;;;;5060761;28;20256;-74
2022/01/20 09:54:57;;;;;;;;;;;1.10;99.90;;;;;;5061966;28;20253;-74
2022/01/20 09:57:24;;;;;;;22.02;5.53;;;1.10;99.90;;;;;;5037551;28;19924;-74
2022/01/20 09:59:52;;;;;;;31.23;4.65;;;1.10;99.90;;;;;;5061595;28;20128;-74
2022/01/20 10:02:19;;;;;;;22.27;3.85;;;1.10;99.90;;;;;;5060662;28;20360;-74
2022/01/20 10:04:56;;;;;;;20.85;4.75;;;1.10;99.90;;;;;;5067730;28;20070;-74
2022/01/20 10:07:33;;;;;;;30.67;4.95;;;1.10;99.90;;;;;;5059236;28;20043;-73
2022/01/20 10:10:09;;;;;;;18.70;4.30;;;1.10;99.90;;;;;;5088995;28;20047;-74
2022/01/20 10:13:06;;;;;;;28.73;5.18;;;1.20;99.90;;;;;;5062644;28;20055;-74
2022/01/20 10:16:12;;;;;;;30.00;4.43;;;1.20;99.90;;;;;;5062733;28;20048;-73
2022/01/20 10:18:57;;;;;;;17.08;3.90;;;1.20;99.90;;;;;;5065359;28;20111;-73
2022/01/20 10:21:33;;;;;;;17.95;3.38;;;1.20;99.90;;;;;;5064690;28;20075;-73
2022/01/20 10:24:19;;;;;;;12.95;3.22;;;1.20;99.90;;;;;;5084604;28;20418;-74
2022/01/20 10:27:09;;;;;;;26.98;4.07;;;1.20;99.90;;;;;;5058042;28;20040;-74
2022/01/20 10:29:37;;;;;;;9.10;2.20;;;1.20;99.90;;;;;;5064982;28;20467;-73
2022/01/20 10:32:20;;;;;;;22.90;3.95;;;1.10;99.90;;;;;;5032215;28;20449;-74
2022/01/20 10:34:48;;;;;;;20.83;3.67;;;1.10;99.90;;;;;;5066201;28;20044;-73
2022/01/20 10:37:23;;;;;;;23.58;4.35;;;1.10;99.90;;;;;;5048010;28;20047;-74
2022/01/20 10:40:07;;;;;;;24.35;3.17;;;1.10;99.90;;;;;;5062331;28;20047;-73
2022/01/20 10:42:41;;;;;;;17.85;3.63;;;1.10;99.90;;;;;;5064006;28;20410;-74
2022/01/20 10:45:16;;;;;;;29.13;5.90;;;1.00;99.90;;;;;;5064431;28;20048;-74
2022/01/20 10:47:48;;;;;;;41.45;4.20;;;1.10;99.90;;;;;;5069317;28;20757;-73
2022/01/20 10:50:21;;;;;;;21.27;3.58;;;1.10;99.90;;;;;;5064934;28;20063;-74
2022/01/20 10:52:54;;;;;;;34.13;4.97;;;1.00;99.90;;;;;;5063669;28;20501;-74
2022/01/20 10:55:26;;;;;;;19.05;3.75;;;1.10;99.90;;;;;;5064117;28;20509;-73
2022/01/20 10:58:15;;;;;;;24.70;3.33;;;1.20;99.90;;;;;;5066628;28;20657;-73
2022/01/20 11:00:45;;;;;;;27.80;4.25;;;1.20;99.90;;;;;;5057026;28;20465;-74
2022/01/20 11:03:14;;;;;;;12.82;3.13;;;1.20;99.90;;;;;;5085047;28;20348;-73
2022/01/20 11:05:45;;;;;;;14.27;3.60;;;1.20;99.90;;;;;;5063965;28;20470;-73
2022/01/20 11:08:15;;;;;;;24.35;3.88;;;1.40;99.90;;;;;;5062384;28;20040;-73
2022/01/20 11:10:43;;;;;;;14.70;3.40;;;1.50;99.90;;;;;;5038585;28;20075;-73
2022/01/20 11:13:30;;;;;;;20.63;4.35;;;1.70;99.90;;;;;;5082031;28;20514;-73
2022/01/20 11:15:57;;;;;;;21.98;5.35;;;1.80;99.90;;;;;;5064604;28;20113;-73
2022/01/20 11:18:28;;;;;;;17.98;4.75;;;1.70;99.90;;;;;;5066261;28;20044;-73
2022/01/20 11:20:56;;;;;;;19.55;4.25;;;1.60;99.90;;;;;;5064014;28;20047;-74
2022/01/20 11:23:42;;;;;;;18.80;5.05;;;1.40;99.90;;;;;;5063550;28;20230;-74
2022/01/20 11:26:35;;;;;;;11.68;3.83;;;1.40;99.90;;;;;;5059143;28;20082;-74
2022/01/20 11:29:21;;;;;;;18.13;4.43;;;1.40;99.90;;;;;;5049207;28;20510;-74
2022/01/20 11:31:54;;;;;;;15.55;4.38;;;1.30;99.90;;;;;;5043274;28;20106;-74
2022/01/20 11:35:16;;;;;;;24.55;4.65;;;1.30;99.90;;;;;;5050840;28;20094;-73
2022/01/20 11:37:55;;;;;;;10.18;3.40;;;1.10;99.90;;;;;;5059825;28;20121;-74
2022/01/20 11:40:23;;;;;;;13.45;3.42;;;1.00;99.90;;;;;;5077207;28;20052;-73
2022/01/20 11:43:04;;;;;;;15.63;4.10;;;0.90;99.90;;;;;;5031310;28;20053;-76
2022/01/20 11:45:35;;;;;;;29.48;5.03;;;0.90;99.90;;;;;;5074617;28;20060;-73
2022/01/20 11:48:19;;;;;;;12.18;3.33;;;1.00;99.90;;;;;;5048969;28;20516;-73
2022/01/20 11:50:48;;;;;;;15.30;3.97;;;1.00;99.90;;;;;;5081475;28;20048;-73
2022/01/20 11:53:18;;;;;;;14.80;4.18;;;1.00;99.90;;;;;;5063315;28;20046;-74
2022/01/20 11:55:50;;;;;;;16.85;3.03;;;1.00;99.90;;;;;;5074005;28;20040;-74
2022/01/20 11:58:20;;;;;;;15.10;3.33;;;1.00;99.90;;;;;;5062761;28;20097;-74
2022/01/20 12:01:00;;;;;;;13.30;3.72;;;1.00;99.90;;;;;;5080919;28;20097;-74
2022/01/20 12:03:29;;;;;;;22.92;3.72;;;0.80;99.90;;;;;;5063939;28;20044;-73
2022/01/20 12:06:12;;;;;;;15.98;2.83;;;0.80;99.90;;;;;;5041032;28;20066;-74
2022/01/20 12:09:04;;;;;;;15.50;3.53;;;0.80;99.90;;;;;;5082755;28;20058;-74
2022/01/20 12:11:36;;;;;;;23.67;4.18;;;0.80;99.90;;;;;;5052887;28;20048;-73
2022/01/20 12:14:03;;;;;;;14.30;3.95;;;0.90;99.90;;;;;;5050682;28;20044;-73
2022/01/20 12:16:30;;;;;;;21.70;4.43;;;1.00;99.90;;;;;;5080382;28;20036;-74
2022/01/20 12:18:59;;;;;;;18.65;3.88;;;1.10;99.90;;;;;;5082244;28;20052;-73
2022/01/20 12:21:28;;;;;;;18.35;4.25;;;1.20;99.90;;;;;;5043048;28;20090;-73
2022/01/20 12:23:55;;;;;;;21.95;3.60;;;1.20;99.90;;;;;;5063048;28;20043;-74
2022/01/20 12:26:22;;;;;;;15.48;3.63;;;1.20;99.90;;;;;;5055118;28;20125;-74
2022/01/20 12:29:06;;;;;;;13.32;4.65;;;1.20;99.90;;;;;;5080667;28;20181;-74
2022/01/20 12:31:45;;;;;;;15.75;3.97;;;1.30;99.90;;;;;;5063463;28;20048;-74
2022/01/20 12:34:13;;;;;;;18.08;4.32;;;1.30;99.90;;;;;;5063928;28;20319;-73
2022/01/20 12:36:40;;;;;;;13.48;3.97;;;1.40;99.90;;;;;;5060102;28;20126;-73
2022/01/20 12:39:09;;;;;;;17.50;4.15;;;1.40;99.90;;;;;;5078096;28;20328;-77
2022/01/20 12:41:36;;;;;;;15.02;4.13;;;1.40;99.90;;;;;;5068542;28;20294;-78
2022/01/20 12:44:05;;;;;;;14.43;4.97;;;1.50;99.90;;;;;;5036491;23;20073;-74
2022/01/20 12:46:37;;;;;;;20.15;4.93;;;1.50;99.90;;;;;;5009634;28;20041;-73
2022/01/20 12:49:11;;;;;;;43.60;5.72;;;1.50;99.90;;;;;;5031021;28;20604;-74
2022/01/20 12:51:42;;;;;;;20.42;4.05;;;1.50;99.90;;;;;;5019084;28;20087;-74
2022/01/20 12:54:11;;;;;;;21.92;5.68;;;1.40;99.90;;;;;;5022004;28;20041;-74
2022/01/20 12:56:41;;;;;;;23.50;4.63;;;1.40;99.90;;;;;;5010530;28;20550;-74
2022/01/20 12:59:09;;;;;;;14.73;3.13;;;1.50;99.90;;;;;;5020232;28;20065;-74
2022/01/20 13:02:00;;;;;;;8.73;3.67;;;1.50;99.90;;;;;;5006419;28;20539;-73
2022/01/20 13:04:29;;;;;;;11.23;3.30;;;1.40;99.90;;;;;;5032732;28;20052;-74
2022/01/20 13:07:00;;;;;;;32.40;5.63;;;1.30;99.90;;;;;;5007413;28;20064;-74
2022/01/20 13:10:19;;;;;;;11.77;3.63;;;1.30;99.90;;;;;;5025252;28;20153;-73
2022/01/20 13:12:42;;;;;;;21.02;3.88;;;1.40;99.90;;;;;;5020735;28;20084;-73
2022/01/20 13:15:21;;;;;;;10.23;3.67;;;1.40;99.90;;;;;;5021471;28;20149;-73
2022/01/20 13:17:59;;;;;;;22.50;3.83;;;1.40;99.90;;;;;;5019630;28;20115;-73
2022/01/20 13:20:26;;;;;;;14.77;3.85;;;1.50;99.90;;;;;;5020515;28;20283;-73
2022/01/20 13:26:02;;;;;;;15.00;3.17;;;1.50;99.90;;;;;;5018509;28;20084;-73
2022/01/20 13:28:31;;;;;;;17.55;3.97;;;1.60;99.90;;;;;;5003467;28;20046;-73
2022/01/20 13:30:58;;;;;;;16.10;3.70;;;1.70;99.90;;;;;;5019988;28;20136;-73
2022/01/20 13:33:27;;;;;;;15.48;4.03;;;1.80;99.90;;;;;;5021170;28;20424;-72
2022/01/20 13:35:56;;;;;;;19.55;4.10;;;1.90;99.90;;;;;;5021051;28;20053;-73
2022/01/20 13:38:38;;;;;;;23.08;4.78;;;1.80;99.90;;;;;;5020343;28;20194;-73
2022/01/20 13:41:07;;;;;;;16.45;4.07;;;1.70;99.90;;;;;;5013173;28;20645;-73
2022/01/20 13:46:30;;;;;;;13.05;4.13;;;1.60;99.90;;;;;;5012115;28;20099;-73
2022/01/20 13:49:18;;;;;;;12.73;4.57;;;1.60;99.90;;;;;;5020973;28;20136;-73
2022/01/20 13:51:46;;;;;;;15.07;4.82;;;1.60;99.90;;;;;;4985900;28;20136;-74
2022/01/20 13:54:13;;;;;;;13.07;5.38;;;1.60;99.90;;;;;;5002107;28;20065;-73
2022/01/20 13:56:53;;;;;;;21.92;4.78;;;1.60;99.90;;;;;;5002155;28;20074;-73
2022/01/20 13:59:20;;;;;;;10.40;3.63;;;1.70;99.90;;;;;;5004836;28;20658;-73
2022/01/20 14:01:56;;;;;;;14.57;3.72;;;1.60;99.90;;;;;;5019151;28;20053;-73
2022/01/20 14:04:23;;;;;;;16.05;3.42;;;1.50;99.90;;;;;;5003403;28;20111;-73
2022/01/20 14:06:49;;;;;;;13.13;2.03;;;1.50;99.90;;;;;;5020038;28;20045;-72
2022/01/20 14:09:16;;;;;;;14.27;3.50;;;1.50;99.90;;;;;;5009618;28;20115;-73
2022/01/20 14:11:47;;;;;;;20.60;4.43;;;1.50;99.90;;;;;;5038047;28;20083;-73
2022/01/20 14:14:14;;;;;;;22.67;5.25;;;1.30;99.90;;;;;;5007293;28;20084;-74
2022/01/20 14:16:41;;;;;;;16.42;4.70;;;1.20;99.90;;;;;;5020702;28;20563;-74
2022/01/20 14:19:10;;;;;;;21.85;4.47;;;1.20;99.90;;;;;;5020335;28;20046;-73
2022/01/20 14:21:37;;;;;;;20.67;4.97;;;1.10;99.90;;;;;;5018679;28;20065;-73
2022/01/20 14:24:04;;;;;;;18.35;3.97;;;1.00;99.90;;;;;;5021203;28;20103;-73
2022/01/20 14:26:32;;;;;;;17.13;3.20;;;1.00;99.90;;;;;;5011042;28;20695;-74
2022/01/20 14:29:00;;;;;;;11.13;3.42;;;0.90;99.90;;;;;;5011355;28;20046;-74